Time;durP1;ratioP1;P1;durP2;ratioP2;P2;SDS_P1;SDS_P2;PMS_P1;PMS_P2;Temp;Humidity;BMP_temperature;BMP_pressure;BME280_temperature;BME280_humidity;BME280_pressure;Samples;Min_cycle;Max_cycle;Signal;HPM_P1;HPM_P2
2022/01/06 00:00:02;;;;;;;;;;;;;;;-15.03;87.97;99079.25;5032500;28;20046;-76
2022/01/06 00:02:29;;;;;;;1.40;1.30;;;;;;;-15.03;87.92;99084.25;5032110;28;20287;-76
2022/01/06 00:04:56;;;;;;;2.03;1.75;;;;;;;-15.07;87.67;99090.00;5031903;28;20474;-76
2022/01/06 00:07:23;;;;;;;2.63;1.58;;;;;;;-15.14;87.75;99094.00;5031909;28;20448;-77
2022/01/06 00:09:52;;;;;;;1.13;1.13;;;;;;;-15.22;89.15;99088.88;5031928;28;20488;-77
2022/01/06 00:12:23;;;;;;;1.70;1.60;;;;;;;-15.27;87.82;99092.06;5031835;28;20482;-74
2022/01/06 00:15:00;;;;;;;1.92;1.73;;;;;;;-15.01;87.18;99090.97;5032047;28;20389;-77
2022/01/06 00:17:41;;;;;;;1.98;1.45;;;;;;;-15.14;87.54;99096.50;5031822;28;20072;-74
2022/01/06 00:23:22;;;;;;;2.85;1.55;;;;;;;-15.05;87.68;99109.19;5011053;28;20053;-77
2022/01/06 00:25:51;;;;;;;2.45;1.98;;;;;;;-15.08;87.93;99104.13;5031557;28;20053;-74
2022/01/06 00:28:19;;;;;;;2.75;1.83;;;;;;;-15.04;87.34;99108.38;5031879;28;20133;-74
2022/01/06 00:30:46;;;;;;;3.28;1.90;;;;;;;-15.28;86.79;99112.81;5031707;28;20152;-77
2022/01/06 00:33:13;;;;;;;2.70;1.92;;;;;;;-15.41;87.93;99105.09;5031721;28;20046;-74
2022/01/06 00:35:41;;;;;;;2.40;1.27;;;;;;;-15.34;87.14;99113.53;5031852;28;20141;-77
2022/01/06 00:38:08;;;;;;;;;;;;;;;-15.47;87.03;99111.59;5032110;28;20136;-75
2022/01/06 00:40:36;;;;;;;1.98;1.80;;;;;;;-15.65;87.33;99112.00;5032134;28;20371;-74
2022/01/06 00:43:06;;;;;;;2.08;1.48;;;;;;;-15.74;87.99;99115.16;5031996;28;20504;-74
2022/01/06 00:45:35;;;;;;;2.17;1.90;;;;;;;-15.70;87.71;99121.88;5044302;22;20073;-68
2022/01/06 00:48:04;;;;;;;1.88;1.75;;;;;;;-15.81;87.78;99118.31;5031775;28;20404;-69
2022/01/06 00:50:32;;;;;;;1.63;1.52;;;;;;;-15.82;87.30;99116.63;5031995;28;20083;-66
2022/01/06 00:53:00;;;;;;;;;;;;;;;-15.96;88.38;99112.94;5031960;28;20160;-67
2022/01/06 00:55:27;;;;;;;2.33;1.83;;;;;;;-15.92;87.38;99109.75;5031635;28;19971;-67
2022/01/06 00:57:55;;;;;;;1.52;1.42;;;;;;;-16.11;88.14;99110.91;5031492;28;20133;-68
2022/01/06 01:00:27;;;;;;;2.55;2.03;;;;;;;-16.32;88.64;99124.50;5031364;28;20053;-68
2022/01/06 01:02:54;;;;;;;1.73;1.63;;;;;;;-16.20;88.14;99116.53;5033107;28;20049;-68
2022/01/06 01:05:21;;;;;;;;;;;;;;;-16.17;88.60;99114.09;5035356;28;20049;-67
2022/01/06 01:07:48;;;;;;;;;;;;;;;-16.15;88.57;99119.97;5035527;28;19928;-68
2022/01/06 01:10:15;;;;;;;1.67;1.58;;;;;;;-16.36;88.20;99116.91;5035143;28;19921;-69
2022/01/06 01:12:46;;;;;;;;;;;;;;;-16.25;88.31;99123.03;5035373;28;20113;-69
2022/01/06 01:15:19;;;;;;;2.35;1.92;;;;;;;-16.31;88.28;99125.34;5035053;28;19921;-69
2022/01/06 01:17:48;;;;;;;2.03;1.75;;;;;;;-16.33;88.66;99131.97;5034738;28;20092;-68
2022/01/06 01:20:16;;;;;;;2.08;1.90;;;;;;;-16.33;88.05;99131.97;5034943;28;20103;-69
2022/01/06 01:22:44;;;;;;;2.45;1.83;;;;;;;-16.21;88.40;99142.22;5034738;28;20056;-68
2022/01/06 01:25:12;;;;;;;2.00;1.80;;;;;;;-16.42;88.19;99132.53;5034545;28;20053;-67
2022/01/06 01:27:41;;;;;;;1.73;1.63;;;;;;;-16.40;88.44;99137.56;5034808;28;20049;-65
2022/01/06 01:30:12;;;;;;;2.47;2.28;;;;;;;-16.32;88.59;99138.63;5034682;28;20506;-64
2022/01/06 01:32:45;;;;;;;1.70;1.40;;;;;;;-16.35;88.13;99134.41;5034628;28;20050;-67
2022/01/06 01:35:14;;;;;;;3.05;2.30;;;;;;;-16.48;89.09;99134.88;5034514;28;20049;-68
2022/01/06 01:37:41;;;;;;;4.22;2.53;;;;;;;-16.42;86.72;99134.19;5034404;28;20046;-65
2022/01/06 01:40:09;;;;;;;2.78;1.65;;;;;;;-16.52;88.87;99141.41;5034620;28;20494;-69
2022/01/06 01:42:37;;;;;;;2.25;2.05;;;;;;;-16.61;87.40;99131.22;5034830;28;20154;-68
2022/01/06 01:45:06;;;;;;;1.90;1.80;;;;;;;-16.65;88.52;99126.94;5034705;28;20411;-68
2022/01/06 01:47:40;;;;;;;1.30;1.30;;;;;;;-16.69;88.61;99127.69;5034293;28;20400;-69
2022/01/06 01:50:13;;;;;;;1.40;1.30;;;;;;;-16.66;87.83;99135.22;5034486;28;20423;-66
2022/01/06 01:52:43;;;;;;;1.90;1.80;;;;;;;-16.58;87.17;99131.28;5034690;28;20042;-68
2022/01/06 01:55:12;;;;;;;1.42;1.33;;;;;;;-16.82;87.58;99133.13;5034168;28;20056;-65
2022/01/06 01:57:39;;;;;;;2.47;1.50;;;;;;;-16.96;88.21;99128.59;5034318;28;20049;-68
2022/01/06 02:00:07;;;;;;;;;;;;;;;-16.95;87.70;99129.44;5034458;28;20061;-69
2022/01/06 02:02:34;;;;;;;1.42;1.33;;;;;;;-17.02;88.98;99135.06;5033928;28;19921;-67
2022/01/06 02:05:01;;;;;;;1.33;1.27;;;;;;;-17.07;88.96;99132.44;5034068;28;20064;-68
2022/01/06 02:07:28;;;;;;;1.30;1.25;;;;;;;-17.19;88.16;99132.06;5033927;28;20137;-66
2022/01/06 02:09:56;;;;;;;;;;;;;;;-17.27;89.09;99121.91;5034434;28;20075;-68
2022/01/06 02:12:25;;;;;;;1.80;1.70;;;;;;;-17.37;88.54;99123.25;5033808;28;19928;-65
2022/01/06 02:14:52;;;;;;;1.60;1.50;;;;;;;-17.54;88.89;99123.53;5033344;28;20041;-67
2022/01/06 02:17:19;;;;;;;;;;;;;;;-17.61;90.02;99134.94;5033957;28;20397;-69
2022/01/06 02:19:56;;;;;;;1.50;1.42;;;;;;;-17.60;89.41;99134.97;5033431;28;20352;-68
2022/01/06 02:22:24;;;;;;;3.92;1.40;;;;;;;-17.63;89.52;99134.06;5033737;28;20045;-69
2022/01/06 02:24:50;;;;;;;;;;;;;;;-17.67;89.37;99133.13;5033858;28;20053;-68
2022/01/06 02:27:20;;;;;;;3.15;1.67;;;;;;;-17.74;88.51;99130.41;5033355;28;19921;-69
2022/01/06 02:29:47;;;;;;;1.60;1.50;;;;;;;-17.79;88.64;99123.63;5033354;28;20157;-68
2022/01/06 02:32:16;;;;;;;2.40;1.77;;;;;;;-17.93;88.90;99129.81;5033837;28;20041;-66
2022/01/06 02:34:44;;;;;;;1.33;1.33;;;;;;;-17.99;89.72;99139.56;5033340;28;20401;-69
2022/01/06 02:37:13;;;;;;;2.30;2.10;;;;;;;-17.90;88.70;99143.97;5033756;28;20049;-70
2022/01/06 02:39:40;;;;;;;2.90;2.03;;;;;;;-17.97;89.27;99144.59;5033624;28;20438;-68
2022/01/06 02:42:07;;;;;;;1.48;1.30;;;;;;;-17.87;88.65;99152.38;5033268;28;20531;-69
2022/01/06 02:44:37;;;;;;;1.92;1.83;;;;;;;-17.97;88.40;99157.00;5045353;22;20042;-74
2022/01/06 02:47:04;;;;;;;1.50;1.40;;;;;;;-17.96;89.56;99159.53;5033175;28;20057;-72
2022/01/06 02:49:31;;;;;;;1.83;1.73;;;;;;;-18.01;89.24;99156.88;5033336;28;20046;-76
2022/01/06 02:51:58;;;;;;;1.65;1.52;;;;;;;-17.99;88.58;99151.16;5034840;28;20045;-77
2022/01/06 02:54:27;;;;;;;2.83;2.15;;;;;;;-18.09;90.15;99150.84;5033246;28;20049;-74
2022/01/06 02:56:54;;;;;;;4.25;2.20;;;;;;;-18.06;89.29;99160.03;5033735;28;20053;-76
2022/01/06 02:59:21;;;;;;;;;;;;;;;-18.06;89.01;99160.84;5034371;28;20052;-76
2022/01/06 03:01:48;;;;;;;3.42;2.08;;;;;;;-18.07;88.92;99150.91;5032894;28;19928;-73
2022/01/06 03:04:15;;;;;;;3.42;1.55;;;;;;;-18.10;88.47;99143.34;5033245;28;20041;-76
2022/01/06 03:06:42;;;;;;;6.60;2.13;;;;;;;-18.05;88.32;99146.81;5034083;28;20045;-76
2022/01/06 03:09:09;;;;;;;1.63;1.52;;;;;;;-18.15;89.20;99139.88;5033075;28;20057;-76
2022/01/06 03:11:42;;;;;;;2.42;2.22;;;;;;;-18.14;88.96;99136.56;5032738;28;20143;-73
2022/01/06 03:14:09;;;;;;;1.92;1.83;;;;;;;-17.96;88.36;99134.69;5033010;28;20060;-77
2022/01/06 03:16:36;;;;;;;;;;;;;;;-17.98;88.88;99138.75;5033249;28;20049;-77
2022/01/06 03:19:02;;;;;;;1.30;1.30;;;;;;;-18.20;87.68;99147.16;5032758;28;19921;-73
2022/01/06 03:21:30;;;;;;;1.83;1.73;;;;;;;-18.31;88.97;99143.44;5032619;28;20099;-77
2022/01/06 03:23:57;;;;;;;2.47;2.28;;;;;;;-18.34;88.59;99134.28;5032424;28;20099;-76
2022/01/06 03:26:23;;;;;;;1.67;1.58;;;;;;;-18.36;88.01;99135.88;5032071;28;20396;-74
2022/01/06 03:28:53;;;;;;;1.83;1.73;;;;;;;-18.45;88.88;99131.41;5032339;28;20053;-73
2022/01/06 03:31:20;;;;;;;2.42;1.88;;;;;;;-18.50;89.08;99129.56;5032617;28;20072;-77
2022/01/06 03:33:47;;;;;;;2.72;1.80;;;;;;;-18.42;89.73;99138.13;5032454;28;20507;-73
2022/01/06 03:36:14;;;;;;;2.38;2.17;;;;;;;-18.50;89.66;99137.03;5032698;28;20056;-74
2022/01/06 03:38:41;;;;;;;1.80;1.70;;;;;;;-18.37;88.43;99138.28;5032748;28;20050;-76
2022/01/06 03:41:08;;;;;;;1.35;1.35;;;;;;;-18.05;84.71;99136.91;5032455;28;20055;-76
2022/01/06 03:43:34;;;;;;;1.30;1.30;;;;;;;-18.16;82.58;99129.06;5032410;28;20464;-73
2022/01/06 03:46:03;;;;;;;2.20;1.90;;;;;;;-18.52;83.29;99128.66;5044729;22;20053;-70
2022/01/06 03:48:30;;;;;;;1.83;1.73;;;;;;;-19.15;85.15;99132.28;5032096;28;20045;-70
2022/01/06 03:50:56;;;;;;;2.03;1.70;;;;;;;-19.20;86.04;99132.91;5032099;28;20054;-70
2022/01/06 03:53:23;;;;;;;2.47;2.20;;;;;;;-19.20;86.86;99146.13;5032242;28;20049;-70
2022/01/06 03:55:50;;;;;;;1.30;1.30;;;;;;;-19.25;86.44;99142.63;5032117;28;20057;-69
2022/01/06 03:58:17;;;;;;;1.20;1.20;;;;;;;-19.50;85.77;99149.91;5032151;28;20054;-69
2022/01/06 04:00:44;;;;;;;2.15;1.48;;;;;;;-19.26;85.68;99140.97;5032103;28;20503;-70
2022/01/06 04:03:13;;;;;;;1.10;1.10;;;;;;;-18.91;83.65;99131.47;5032113;28;20053;-69
2022/01/06 04:05:39;;;;;;;1.20;1.20;;;;;;;-18.91;82.94;99129.84;5031791;28;20045;-70
2022/01/06 04:08:06;;;;;;;1.58;1.48;;;;;;;-18.95;83.26;99135.50;5032260;28;20050;-70
2022/01/06 04:10:33;;;;;;;1.35;1.25;;;;;;;-19.08;84.45;99144.88;5031967;28;20480;-67
2022/01/06 04:13:00;;;;;;;;;;;;;;;-19.59;85.45;99145.47;5032578;28;20053;-68
2022/01/06 04:15:27;;;;;;;1.77;1.60;;;;;;;-19.87;87.15;99136.16;5032017;28;19928;-70
2022/01/06 04:17:54;;;;;;;1.35;1.27;;;;;;;-19.78;87.10;99129.94;5031914;28;20041;-70
2022/01/06 04:20:23;;;;;;;1.08;1.08;;;;;;;-19.44;86.42;99136.16;5032181;28;20068;-67
2022/01/06 04:22:50;;;;;;;1.35;1.35;;;;;;;-19.28;84.85;99130.13;5032006;28;20411;-68
2022/01/06 04:25:16;;;;;;;;;;;;;;;-19.29;85.12;99128.44;5032476;28;20045;-69
2022/01/06 04:27:43;;;;;;;;;;;;;;;-19.30;84.72;99123.44;5032335;28;19921;-70
2022/01/06 04:30:11;;;;;;;1.10;1.10;;;;;;;-19.52;84.28;99129.19;5031836;28;20008;-70
2022/01/06 04:32:38;;;;;;;1.67;1.58;;;;;;;-19.70;83.92;99129.34;5031757;28;20057;-68
2022/01/06 04:35:06;;;;;;;;;;;;;;;-20.12;84.42;99129.34;5032106;28;20052;-70
2022/01/06 04:37:35;;;;;;;1.58;1.50;;;;;;;-20.12;84.18;99132.66;5034807;28;19921;-70
2022/01/06 04:40:02;;;;;;;1.20;1.20;;;;;;;-20.36;81.61;99136.63;5035608;28;20049;-69
2022/01/06 04:42:30;;;;;;;1.70;1.50;;;;;;;-20.24;82.48;99142.06;5035544;28;20055;-70
2022/01/06 04:44:57;;;;;;;1.10;1.10;;;;;;;-20.26;82.48;99141.19;5035923;28;20053;-70
2022/01/06 04:47:24;;;;;;;1.10;1.10;;;;;;;-20.30;82.68;99126.97;5035530;28;20046;-70
2022/01/06 04:49:51;;;;;;;1.25;1.25;;;;;;;-20.45;83.16;99123.06;5035706;28;20046;-65
2022/01/06 04:52:18;;;;;;;1.00;1.00;;;;;;;-20.68;82.27;99121.28;5035722;28;20042;-69
2022/01/06 04:54:46;;;;;;;;;;;;;;;-21.12;84.41;99133.41;5035935;28;20056;-70
2022/01/06 04:57:13;;;;;;;;;;;;;;;-21.10;85.84;99140.91;5035775;28;19932;-70
2022/01/06 04:59:39;;;;;;;;;;;;;;;-21.01;85.37;99138.84;5035555;28;19944;-69
2022/01/06 05:02:06;;;;;;;;;;;;;;;-21.12;85.47;99126.00;5035953;28;19921;-70
2022/01/06 05:04:33;;;;;;;;;;;;;;;-21.19;86.46;99124.06;5035613;28;19921;-70
2022/01/06 05:06:59;;;;;;;;;;;;;;;-21.04;84.73;99123.03;5035615;28;19927;-70
2022/01/06 05:09:26;;;;;;;;;;;;;;;-20.59;81.91;99109.34;5035772;28;19921;-69
2022/01/06 05:11:54;;;;;;;;;;;;;;;-20.66;82.05;99122.22;5035695;28;19928;-67
2022/01/06 05:14:20;;;;;;;;;;;;;;;-20.81;81.34;99132.28;5035587;28;19921;-70
2022/01/06 05:16:47;;;;;;;;;;;;;;;-20.90;81.62;99127.81;5035475;28;19925;-70
2022/01/06 05:19:14;;;;;;;;;;;;;;;-21.17;81.24;99129.06;5035574;28;19921;-69
2022/01/06 05:21:40;;;;;;;;;;;;;;;-21.62;85.15;99128.72;5035254;28;19921;-69
2022/01/06 05:24:12;;;;;;;;;;;;;;;-21.40;83.70;99136.31;5035363;28;19924;-70
2022/01/06 05:26:39;;;;;;;;;;;;;;;-21.58;85.26;99136.31;5035487;28;19921;-70
2022/01/06 05:29:07;;;;;;;;;;;;;;;-21.62;85.94;99136.97;5035392;28;19925;-70
2022/01/06 05:31:34;;;;;;;;;;;;;;;-21.24;84.65;99120.53;5035161;28;20375;-70
2022/01/06 05:34:01;;;;;;;;;;;;;;;-20.91;84.85;99113.72;5034987;28;19921;-70
2022/01/06 05:36:27;;;;;;;;;;;;;;;-20.72;83.03;99110.44;5035030;28;19921;-70
2022/01/06 05:38:54;;;;;;;;;;;;;;;-20.74;82.21;99107.06;5035190;28;19921;-70
2022/01/06 05:41:21;;;;;;;;;;;;;;;-21.01;80.89;99121.56;5034973;28;19927;-70
2022/01/06 05:43:48;;;;;;;;;;;;;;;-21.35;82.35;99116.72;5035197;28;19921;-70
2022/01/06 05:46:16;;;;;;;;;;;;;;;-21.57;84.37;99122.38;5047181;22;19932;-77
2022/01/06 05:48:43;;;;;;;;;;;;;;;-21.47;83.93;99126.06;5034521;28;20364;-74
2022/01/06 05:51:09;;;;;;;;;;;;;;;-21.40;83.98;99128.06;5035175;28;19921;-76
2022/01/06 05:53:36;;;;;;;;;;;;;;;-21.37;84.51;99126.56;5034721;28;20355;-76
2022/01/06 05:56:03;;;;;;;;;;;;;;;-21.29;84.60;99133.44;5034793;28;19928;-75
2022/01/06 05:58:29;;;;;;;;;;;;;;;-20.89;82.92;99133.59;5034571;28;20383;-75
2022/01/06 06:00:56;;;;;;;;;;;;;;;-20.81;80.57;99121.56;5034988;28;19927;-76
2022/01/06 06:03:27;;;;;;;;;;;;;;;-21.22;81.81;99125.53;5034929;28;20290;-75
2022/01/06 06:05:53;;;;;;;;;;;;;;;-21.65;81.80;99118.66;5034821;28;19925;-78
2022/01/06 06:08:20;;;;;;;;;;;;;;;-21.62;83.59;99124.63;5034606;28;19928;-76
2022/01/06 06:10:47;;;;;;;;;;;;;;;-21.47;81.03;99131.00;5034367;28;20375;-76
2022/01/06 06:13:13;;;;;;;;;;;;;;;-22.17;81.21;99139.25;5034498;28;19921;-73
2022/01/06 06:15:40;;;;;;;;;;;;;;;-22.08;83.83;99133.94;5034488;28;19921;-73
2022/01/06 06:18:09;;;;;;;;;;;;;;;-21.64;81.84;99125.31;5034354;28;19920;-74
2022/01/06 06:20:37;;;;;;;;;;;;;;;-21.50;80.41;99123.47;5034264;28;19964;-76
2022/01/06 06:23:04;;;;;;;;;;;;;;;-21.68;79.28;99116.91;5034367;28;19925;-76
2022/01/06 06:25:31;;;;;;;;;;;;;;;-21.76;80.24;99123.13;5034025;28;20276;-76
2022/01/06 06:27:57;;;;;;;;;;;;;;;-21.89;79.94;99116.75;5034107;28;19936;-76
2022/01/06 06:30:24;;;;;;;;;;;;;;;-22.21;77.66;99132.53;5034526;28;19927;-78
2022/01/06 06:32:50;;;;;;;;;;;;;;;-22.21;78.10;99125.13;5034250;28;19928;-78
2022/01/06 06:35:17;;;;;;;;;;;;;;;-22.30;77.66;99123.06;5033946;28;20363;-76
2022/01/06 06:37:45;;;;;;;;;;;;;;;-22.46;78.15;99128.03;5033903;28;19921;-75
2022/01/06 06:40:13;;;;;;;;;;;;;;;-22.67;79.28;99131.13;5033638;28;19921;-79
2022/01/06 06:42:39;;;;;;;;;;;;;;;-23.05;80.33;99128.34;5033933;28;19921;-79
2022/01/06 06:45:08;;;;;;;;;;;;;;;-23.06;83.14;99115.19;5046370;22;19927;-69
2022/01/06 06:47:35;;;;;;;;;;;;;;;-22.86;83.30;99117.03;5033734;28;19921;-67
2022/01/06 06:50:01;;;;;;;;;;;;;;;-22.45;81.92;99130.56;5033552;28;19925;-68
2022/01/06 06:52:28;;;;;;;;;;;;;;;-23.04;81.78;99127.56;5033664;28;19927;-67
2022/01/06 06:54:56;;;;;;;;;;;;;;;-22.69;83.47;99144.97;5033770;28;20310;-67
2022/01/06 06:57:22;;;;;;;;;;;;;;;-22.67;82.59;99148.38;5033526;28;20356;-69
2022/01/06 06:59:49;;;;;;;;;;;;;;;-22.62;83.49;99145.31;5032620;28;19921;-67
2022/01/06 07:02:16;;;;;;;;;;;;;;;-22.29;82.80;99143.66;5033522;28;19983;-68
2022/01/06 07:04:42;;;;;;;;;;;;;;;-22.07;82.02;99141.41;5033218;28;19921;-68
2022/01/06 07:07:09;;;;;;;;;;;;;;;-21.98;79.67;99133.63;5033558;28;19921;-67
2022/01/06 07:09:35;;;;;;;;;;;;;;;-22.34;77.82;99123.69;5033464;28;19921;-67
2022/01/06 07:12:04;;;;;;;;;;;;;;;-22.62;77.50;99123.97;5033259;28;19925;-67
2022/01/06 07:14:30;;;;;;;;;;;;;;;-22.89;78.67;99134.09;5033260;28;19921;-66
2022/01/06 07:16:57;;;;;;;;;;;;;;;-23.00;79.12;99142.59;5033196;28;19947;-67
2022/01/06 07:19:24;;;;;;;;;;;;;;;-23.12;80.72;99157.56;5033003;28;20363;-68
2022/01/06 07:21:50;;;;;;;;;;;;;;;-22.97;80.04;99149.31;5033315;28;20360;-68
2022/01/06 07:24:18;;;;;;;;;;;;;;;-23.23;79.76;99148.78;5032903;28;19953;-67
2022/01/06 07:26:45;;;;;;;;;;;;;;;-23.34;81.44;99155.63;5033157;28;19967;-69
2022/01/06 07:29:13;;;;;;;;;;;;;;;-23.32;83.11;99154.09;5033103;28;19927;-69
2022/01/06 07:31:39;;;;;;;;;;;;;;;-22.98;84.43;99158.31;5032966;28;19921;-69
2022/01/06 07:34:06;;;;;;;;;;;;;;;-22.66;83.77;99164.00;5032796;28;19929;-69
2022/01/06 07:36:32;;;;;;;;;;;;;;;-22.62;83.16;99169.94;5032907;28;20277;-66
2022/01/06 07:38:59;;;;;;;;;;;;;;;-22.49;83.08;99177.19;5033146;28;19928;-67
2022/01/06 07:41:26;;;;;;;;;;;;;;;-22.42;82.88;99169.34;5032763;28;19921;-69
2022/01/06 07:43:52;;;;;;;;;;;;;;;-22.40;83.64;99169.38;5032854;28;19925;-69
2022/01/06 07:46:20;;;;;;;;;;;;;;;-22.28;77.23;99168.38;5033163;28;19921;-68
2022/01/06 07:48:56;;;;;;;;;;;;;;;-22.68;76.43;99171.34;5032872;28;19921;-68
2022/01/06 07:51:23;;;;;;;;;;;;;;;-22.93;77.67;99170.84;5032802;28;19925;-67
2022/01/06 07:53:50;;;;;;;;;;;;;;;-23.09;77.02;99169.19;5032668;28;19921;-69
2022/01/06 07:56:16;;;;;;;;;;;;;;;-23.08;78.10;99170.91;5032657;28;19928;-68
2022/01/06 07:58:43;;;;;;;;;;;;;;;-23.32;78.20;99173.78;5032642;28;19921;-69
2022/01/06 08:01:10;;;;;;;;;;;;;;;-23.56;79.85;99162.63;5032522;28;20275;-68
2022/01/06 08:03:38;;;;;;;;;;;;;;;-23.48;81.46;99158.94;5032786;28;19928;-69
2022/01/06 08:06:04;;;;;;;;;;;;;;;-23.52;80.40;99162.88;5032645;28;19921;-64
2022/01/06 08:08:31;;;;;;;;;;;;;;;-23.46;82.00;99171.34;5032924;28;19928;-68
2022/01/06 08:10:58;;;;;;;;;;;;;;;-23.23;82.13;99177.50;5033184;28;19921;-68
2022/01/06 08:13:24;;;;;;;;;;;;;;;-23.14;82.61;99175.50;5036672;28;20737;-68
2022/01/06 08:15:51;;;;;;;;;;;;;;;-22.81;79.83;99183.78;5036496;28;19921;-68
2022/01/06 08:18:17;;;;;;;;;;;;;;;-23.06;76.45;99180.84;5036651;28;19928;-68
2022/01/06 08:20:46;;;;;;;;;;;;;;;-23.52;75.13;99170.25;5036592;28;19929;-69
2022/01/06 08:23:12;;;;;;;;;;;;;;;-23.69;76.76;99175.03;5036447;28;19928;-68
2022/01/06 08:25:39;;;;;;;;;;;;;;;-23.80;77.20;99180.25;5036247;28;19928;-67
2022/01/06 08:28:07;;;;;;;;;;;;;;;-24.16;77.53;99183.94;5036467;28;19944;-65
2022/01/06 08:30:34;;;;;;;;;;;;;;;-24.20;79.67;99187.00;5036729;28;19921;-69
2022/01/06 08:33:01;;;;;;;;;;;;;;;-23.82;80.35;99190.75;5036846;28;19921;-69
2022/01/06 08:35:27;;;;;;;;;;;;;;;-23.67;79.20;99191.56;5036087;28;19927;-69
2022/01/06 08:37:56;;;;;;;;;;;;;;;-23.98;79.22;99189.06;5036293;28;20279;-69
2022/01/06 08:40:22;;;;;;;;;;;;;;;-24.01;81.24;99183.97;5036069;28;19921;-68
2022/01/06 08:42:49;;;;;;;;;;;;;;;-23.81;82.15;99185.06;5036324;28;19928;-69
2022/01/06 08:45:16;;;;;;;;;;;;;;;-23.72;82.03;99173.28;5036166;28;19921;-69
2022/01/06 08:47:43;;;;;;;;;;;;;;;-23.36;80.02;99168.63;5036118;28;19928;-69
2022/01/06 08:50:10;;;;;;;;;;;;;;;-23.30;78.81;99172.22;5035855;28;19921;-67
2022/01/06 08:52:38;;;;;;;;;;;;;;;-23.33;77.46;99176.16;5036055;28;19921;-65
2022/01/06 08:55:07;;;;;;;;;;;;;;;-23.75;78.03;99168.19;5035908;28;20367;-70
2022/01/06 08:57:33;;;;;;;;;;;;;;;-23.72;78.67;99170.81;5036384;28;19927;-69
2022/01/06 09:00:00;;;;;;;;;;;;;;;-23.73;79.11;99160.88;5035711;28;20268;-69
2022/01/06 09:02:27;;;;;;;;;;;;;;;-23.44;82.19;99155.91;5035891;28;19924;-68
2022/01/06 09:04:55;;;;;;;;;;;;;;;-23.31;81.27;99167.25;5035577;28;19944;-69
2022/01/06 09:07:22;;;;;;;;;;;;;;;-23.21;81.93;99181.75;5035429;28;19921;-69
2022/01/06 09:09:48;;;;;;;;;;;;;;;-23.01;82.53;99172.06;5035328;28;20290;-70
2022/01/06 09:12:18;;;;;;;;;;;;;;;-22.44;86.56;99171.72;5035573;28;19928;-70
2022/01/06 09:14:45;;;;;;;;;;;;;;;-21.89;85.54;99180.91;5035280;28;19921;-69
2022/01/06 09:17:11;;;;;;;;;;;;;;;-21.90;86.65;99189.09;5035353;28;19921;-68
2022/01/06 09:19:38;;;;;;;;;;;;;;;-21.74;86.82;99189.84;5035338;28;20359;-65
2022/01/06 09:22:05;;;;;;;;;;;;;;;-21.61;85.29;99188.00;5035807;28;19921;-68
2022/01/06 09:24:31;;;;;;;;;;;;;;;-21.45;85.67;99194.50;5034268;28;19921;-69
2022/01/06 09:26:58;;;;;;;;;;;;;;;-21.47;85.69;99191.16;5035543;28;19921;-69
2022/01/06 09:29:26;;;;;;;;;;;;;;;-21.36;85.41;99189.13;5035153;28;19921;-68
2022/01/06 09:31:53;;;;;;;;;;;;;;;-21.32;85.56;99177.00;5035251;28;19944;-69
2022/01/06 09:34:19;;;;;;;;;;;;;;;-21.25;85.48;99177.28;5035003;28;19925;-68
2022/01/06 09:36:46;;;;;;;;;;;;;;;-21.26;84.72;99185.47;5034957;28;19921;-69
2022/01/06 09:39:13;;;;;;;;;;;;;;;-21.20;84.46;99188.22;5034950;28;20355;-68
2022/01/06 09:41:40;;;;;;;;;;;;;;;-21.25;84.75;99195.41;5035210;28;19947;-64
2022/01/06 09:44:10;;;;;;;;;;;;;;;-21.17;84.60;99200.69;5035619;28;19921;-71
2022/01/06 09:46:38;;;;;;;;;;;;;;;-21.31;84.74;99205.03;5033987;28;19928;-69
2022/01/06 09:49:04;;;;;;;;;;;;;;;-21.21;85.53;99213.72;5033796;28;19995;-69
2022/01/06 09:51:31;;;;;;;;;;;;;;;-21.11;85.01;99201.00;5033815;28;19925;-68
2022/01/06 09:53:59;;;;;;;;;;;;;;;-21.11;84.38;99208.41;5033838;28;19921;-69
2022/01/06 09:56:27;;;;;;;;;;;;;;;-21.10;83.19;99210.94;5033609;28;19928;-69
2022/01/06 09:58:53;;;;;;;;;;;;;;;-21.25;84.74;99201.97;5033503;28;19943;-69
2022/01/06 10:01:20;;;;;;;;;;;;;;;-21.15;83.67;99212.34;5033398;28;19921;-70
2022/01/06 10:03:49;;;;;;;;;;;;;;;-21.16;84.63;99208.19;5033350;28;20276;-70
2022/01/06 10:06:17;;;;;;;;;;;;;;;-21.05;83.71;99200.44;5033346;28;20284;-67
2022/01/06 10:08:50;;;;;;;;;;;;;;;-21.04;83.70;99224.34;5033343;28;20260;-64
2022/01/06 10:11:18;;;;;;;;;;;;;;;-21.01;83.33;99214.59;5033439;28;19921;-65
2022/01/06 10:13:46;;;;;;;;;;;;;;;-20.94;82.96;99232.25;5033225;28;19968;-68
2022/01/06 10:16:13;;;;;;;;;;;;;;;-20.84;82.55;99235.16;5033786;28;19987;-67
2022/01/06 10:18:41;;;;;;;;;;;;;;;-20.70;83.33;99234.13;5033364;28;19928;-67
2022/01/06 10:21:18;;;;;;;;;;;;;;;-20.37;82.50;99223.97;5033448;28;19921;-69
2022/01/06 10:23:45;;;;;;;;;;;;;;;-20.48;83.50;99223.53;5033389;28;19921;-70
2022/01/06 10:26:13;;;;;;;;;;;;;;;-20.28;83.01;99231.81;5033706;28;19921;-65
2022/01/06 10:28:39;;;;;;;;;;;;;;;-20.29;82.85;99242.47;5033376;28;19928;-69
2022/01/06 10:31:06;;;;;;;;;;;;;;;-20.10;83.25;99222.69;5033187;28;19921;-69
2022/01/06 10:33:35;;;;;;;;;;;;;;;-19.92;83.52;99225.09;5033426;28;19925;-70
2022/01/06 10:36:04;;;;;;;;;;;;;;;-19.73;81.77;99225.84;5034012;28;19932;-68
2022/01/06 10:38:33;;;;;;;;;;;;;;;-20.24;83.32;99233.63;5036662;28;19921;-71
2022/01/06 10:41:09;;;;;;;;;;;;;;;-20.09;84.08;99234.25;5036286;28;19921;-66
2022/01/06 10:43:36;;;;;;;;;;;;;;;-19.71;83.58;99237.50;5035891;28;19921;-70
2022/01/06 10:46:03;;;;;;;;;;;;;;;-19.69;83.81;99240.88;4995527;28;1182460;-68
2022/01/06 10:48:29;;;;;;;;;;;;;;;-19.57;82.76;99245.44;5034524;28;19932;-69
2022/01/06 10:50:58;;;;;;;;;;;;;;;-19.53;82.68;99243.94;5033688;28;19961;-68
2022/01/06 10:53:25;;;;;;;;;;;;;;;-19.49;82.11;99240.78;5033612;28;20351;-69
2022/01/06 10:55:52;;;;;;;;;;;;;;;-19.94;83.39;99243.97;5033437;28;19921;-70
2022/01/06 10:58:20;;;;;;;;;;;;;;;-19.94;82.87;99230.75;5033422;28;19921;-69
2022/01/06 11:00:48;;;;;;;;;;;;;;;-19.84;82.42;99227.88;5033344;28;19928;-69
2022/01/06 11:03:15;;;;;;;;;;;;;;;-19.78;82.72;99240.50;5033787;28;19921;-69
2022/01/06 11:05:43;;;;;;;;;;;;;;;-19.87;83.18;99235.19;5033356;28;20320;-69
2022/01/06 11:08:10;;;;;;;;;;;;;;;-19.78;82.76;99236.41;5033458;28;20146;-69
2022/01/06 11:10:45;;;;;;;;;;;;;;;-19.71;82.73;99244.91;5033308;28;19922;-69
2022/01/06 11:13:14;;;;;;;;;;;;;;;-19.67;82.52;99244.28;5033865;28;19921;-69
2022/01/06 11:15:40;;;;;;;;;;;;;;;-19.53;81.39;99237.34;5033367;28;19932;-69
2022/01/06 11:18:07;;;;;;;;;;;;;;;-19.57;82.10;99238.00;5033173;28;19925;-69
2022/01/06 11:20:34;;;;;;;;;;;;;;;-19.52;81.95;99246.47;5033171;28;19921;-64
2022/01/06 11:23:01;;;;;;;;;;;;;;;-19.37;82.11;99242.13;5032739;28;19992;-68
2022/01/06 11:25:34;;;;;;;;;;;;;;;-19.39;81.26;99240.38;5032929;28;19921;-68
2022/01/06 11:28:07;;;;;;;;;;;;;;;-19.13;81.36;99253.81;5032945;28;20288;-64
2022/01/06 11:30:43;;;;;;;;;;;;;;;-19.19;81.16;99246.97;5032912;28;19928;-65
2022/01/06 11:33:10;;;;;;;;;;;;;;;-19.15;80.34;99248.78;5032941;28;19921;-68
2022/01/06 11:35:51;;;;;;;;;;;;;;;-19.21;80.51;99253.50;5032753;28;19921;-69
2022/01/06 11:38:19;;;;;;;;;;;;;;;-19.05;80.48;99249.16;5031157;28;19943;-65
2022/01/06 11:40:46;;;;;;;;;;;;;;;-19.12;80.18;99260.44;5033213;28;20323;-67
2022/01/06 11:43:13;;;;;;;;;;;;;;;-19.47;81.05;99269.78;5032918;28;20359;-68
2022/01/06 11:45:40;;;;;;;;;;;;;;;-19.57;80.40;99265.25;5031868;28;19928;-67
2022/01/06 11:48:08;;;;;;;;;;;;;;;-19.61;80.91;99266.78;5032611;28;19928;-66
2022/01/06 11:50:36;;;;;;;;;;;;;;;-19.71;81.08;99267.22;5033116;28;19921;-66
2022/01/06 11:53:04;;;;;;;;;;;;;;;-19.85;81.38;99255.91;5032707;28;19921;-67
2022/01/06 11:55:33;;;;;;;;;;;;;;;-19.95;81.86;99262.09;5032643;28;20023;-66
2022/01/06 11:58:07;;;;;;;;;;;;;;;-19.87;82.28;99264.91;5032654;28;20340;-66
2022/01/06 12:00:35;;;;;;;;;;;;;;;-19.66;81.15;99263.25;5032607;28;19964;-64
2022/01/06 12:03:02;;;;;;;;;;;;;;;-19.57;80.50;99267.72;5032787;28;19933;-65
2022/01/06 12:05:40;;;;;;;;;;;;;;;-19.82;80.90;99264.28;5032739;28;19927;-65
2022/01/06 12:08:07;;;;;;;;;;;;;;;-19.69;80.49;99268.13;5032402;28;19921;-64
2022/01/06 12:10:39;;;;;;;;;;;;;;;-19.84;81.31;99265.00;5032589;28;20287;-67
2022/01/06 12:13:05;;;;;;;;;;;;;;;-19.77;81.71;99269.44;5032331;28;19936;-66
2022/01/06 12:15:32;;;;;;;;;;;;;;;-19.80;81.01;99266.84;5032494;28;19927;-65